createdAt,value
2018-06-10T00:01:04.969Z,19.80
2018-06-10T00:03:32.574Z,19.70
2018-06-10T00:06:00.216Z,19.80
2018-06-10T00:08:27.838Z,19.80
2018-06-10T00:10:55.575Z,19.80
2018-06-10T00:13:23.228Z,19.70
2018-06-10T00:15:51.015Z,19.80
2018-06-10T00:18:18.655Z,19.80
2018-06-10T00:20:46.386Z,19.70
2018-06-10T00:23:14.081Z,19.70
2018-06-10T00:25:41.712Z,19.70
2018-06-10T00:28:09.321Z,19.70
2018-06-10T00:30:36.998Z,19.70
2018-06-10T00:33:05.159Z,19.70
2018-06-10T00:35:33.370Z,19.60
2018-06-10T00:38:00.983Z,19.60
2018-06-10T00:40:28.615Z,19.60
2018-06-10T00:42:56.222Z,19.60
2018-06-10T00:45:23.855Z,19.70
2018-06-10T00:47:51.444Z,19.50
2018-06-10T00:50:19.187Z,19.50
2018-06-10T00:52:46.820Z,19.50
2018-06-10T00:55:14.567Z,19.50
2018-06-10T00:57:42.198Z,19.50
2018-06-10T01:00:09.806Z,19.50
2018-06-10T01:02:37.468Z,19.50
2018-06-10T01:05:05.094Z,19.40
2018-06-10T01:07:32.716Z,19.40
2018-06-10T01:10:00.368Z,19.40
2018-06-10T01:12:27.986Z,19.40
2018-06-10T01:14:55.603Z,19.40
2018-06-10T01:17:23.225Z,19.40
2018-06-10T01:19:50.938Z,19.30
2018-06-10T01:22:18.568Z,19.40
2018-06-10T01:24:46.176Z,19.30
2018-06-10T01:27:13.815Z,19.30
2018-06-10T01:29:41.437Z,19.30
2018-06-10T01:32:09.051Z,19.30
2018-06-10T01:34:36.678Z,19.20
2018-06-10T01:37:04.294Z,19.20
2018-06-10T01:39:31.895Z,19.20
2018-06-10T01:41:59.526Z,19.20
2018-06-10T01:44:27.169Z,19.20
2018-06-10T01:46:54.787Z,19.20
2018-06-10T01:49:22.395Z,19.20
2018-06-10T01:51:50.018Z,19.20
2018-06-10T01:54:17.620Z,19.10
2018-06-10T01:56:45.230Z,19.10
2018-06-10T01:59:12.884Z,19.00
2018-06-10T02:01:40.494Z,19.00
2018-06-10T02:04:08.124Z,19.00
2018-06-10T02:06:35.739Z,18.90
2018-06-10T02:09:04.817Z,18.80
2018-06-10T02:11:32.423Z,18.80
2018-06-10T02:14:00.028Z,18.80
2018-06-10T02:16:27.747Z,18.70
2018-06-10T02:18:55.422Z,18.70
2018-06-10T02:21:23.042Z,18.70
2018-06-10T02:23:50.642Z,18.70
2018-06-10T02:26:19.093Z,18.70
2018-06-10T02:28:46.762Z,18.70
2018-06-10T02:31:14.447Z,18.60
2018-06-10T02:33:42.048Z,18.60
2018-06-10T02:36:09.700Z,18.60
2018-06-10T02:38:37.328Z,18.50
2018-06-10T02:41:05.167Z,18.50
2018-06-10T02:43:32.775Z,18.50
2018-06-10T02:46:00.381Z,18.50
2018-06-10T02:48:28.007Z,18.50
2018-06-10T02:50:55.603Z,18.50
2018-06-10T02:53:23.194Z,18.50
2018-06-10T02:55:50.784Z,18.40
2018-06-10T02:58:18.367Z,18.40
2018-06-10T03:00:46.092Z,18.40
2018-06-10T03:03:13.698Z,18.40
2018-06-10T03:05:41.407Z,18.40
2018-06-10T03:08:09.002Z,18.40
2018-06-10T03:10:36.706Z,18.40
2018-06-10T03:13:04.356Z,18.50
2018-06-10T03:15:32.036Z,18.60
2018-06-10T03:17:59.634Z,18.40
2018-06-10T03:20:27.283Z,18.50
2018-06-10T03:22:54.876Z,18.50
2018-06-10T03:25:22.503Z,18.50
2018-06-10T03:27:50.127Z,18.50
2018-06-10T03:30:17.732Z,18.60
2018-06-10T03:32:45.315Z,18.50
2018-06-10T03:35:12.911Z,18.50
2018-06-10T03:37:40.530Z,18.50
2018-06-10T03:40:08.159Z,18.50
2018-06-10T03:42:35.783Z,18.70
2018-06-10T03:45:03.604Z,19.00
2018-06-10T03:47:31.226Z,19.10
2018-06-10T03:49:58.844Z,19.50
2018-06-10T03:52:26.448Z,19.80
2018-06-10T03:54:54.037Z,20.30
2018-06-10T03:57:21.652Z,20.70
2018-06-10T03:59:49.271Z,21.20
2018-06-10T04:02:16.919Z,21.60
2018-06-10T04:04:44.525Z,22.10
2018-06-10T04:07:12.142Z,22.10
2018-06-10T04:09:39.807Z,22.20
2018-06-10T04:12:07.435Z,22.40
2018-06-10T04:14:35.053Z,22.60
2018-06-10T04:17:02.663Z,23.10
2018-06-10T04:19:30.275Z,23.60
2018-06-10T04:21:57.871Z,24.10
2018-06-10T04:24:25.512Z,24.40
2018-06-10T04:26:53.103Z,24.90
2018-06-10T04:29:20.686Z,25.40
2018-06-10T04:31:48.352Z,25.90
2018-06-10T04:34:16.008Z,25.90
2018-06-10T04:36:43.631Z,26.60
2018-06-10T04:39:11.234Z,27.20
2018-06-10T04:41:38.907Z,28.00
2018-06-10T04:44:06.559Z,28.80
2018-06-10T04:46:34.192Z,29.30
2018-06-10T04:49:01.896Z,30.00
2018-06-10T04:51:29.518Z,30.40
2018-06-10T04:53:57.139Z,30.70
2018-06-10T04:56:24.803Z,31.60
2018-06-10T04:58:52.507Z,32.20
2018-06-10T05:01:20.175Z,32.80
2018-06-10T05:03:47.843Z,33.00
2018-06-10T05:06:15.482Z,34.20
2018-06-10T05:08:43.095Z,34.60
2018-06-10T05:11:10.694Z,34.80
2018-06-10T05:13:38.298Z,35.50
2018-06-10T05:16:05.921Z,36.20
2018-06-10T05:18:33.524Z,36.70
2018-06-10T05:21:01.139Z,37.40
2018-06-10T05:23:28.788Z,38.20
2018-06-10T05:25:56.616Z,38.50
2018-06-10T05:28:24.267Z,39.10
2018-06-10T05:30:51.927Z,40.00
2018-06-10T05:33:19.561Z,40.80
2018-06-10T05:35:47.150Z,41.10
2018-06-10T05:38:14.796Z,41.60
2018-06-10T05:40:42.421Z,41.60
2018-06-10T05:43:10.133Z,42.90
2018-06-10T05:45:37.744Z,43.50
2018-06-10T05:48:05.560Z,43.80
2018-06-10T05:50:33.171Z,44.20
2018-06-10T05:53:00.812Z,44.70
2018-06-10T05:55:28.481Z,45.20
2018-06-10T05:57:56.112Z,45.40
2018-06-10T06:00:23.746Z,45.30
2018-06-10T06:02:51.372Z,45.80
2018-06-10T06:05:19.001Z,45.80
2018-06-10T06:07:46.647Z,45.90
2018-06-10T06:10:14.264Z,45.80
2018-06-10T06:12:41.994Z,46.30
2018-06-10T06:15:09.591Z,46.30
2018-06-10T06:17:37.220Z,46.90
2018-06-10T06:20:05.408Z,46.90
2018-06-10T06:22:33.020Z,47.40
2018-06-10T06:25:00.631Z,47.30
2018-06-10T06:27:28.303Z,47.80
2018-06-10T06:29:55.915Z,48.00
2018-06-10T06:32:23.527Z,48.60
2018-06-10T06:34:51.144Z,48.60
2018-06-10T06:37:18.765Z,48.50
2018-06-10T06:39:46.369Z,49.10
2018-06-10T06:42:13.951Z,49.10
2018-06-10T06:44:41.535Z,49.60
2018-06-10T06:47:09.133Z,49.30
2018-06-10T06:49:36.715Z,49.90
2018-06-10T06:52:04.344Z,49.90
2018-06-10T06:54:31.992Z,50.00
2018-06-10T06:56:59.648Z,50.20
2018-06-10T06:59:27.347Z,50.10
2018-06-10T07:01:55.012Z,49.80
2018-06-10T07:04:22.607Z,49.90
2018-06-10T07:06:50.250Z,50.40
2018-06-10T07:09:17.879Z,50.10
2018-06-10T07:11:45.575Z,50.20
2018-06-10T07:14:13.200Z,50.20
2018-06-10T07:16:40.831Z,50.40
2018-06-10T07:19:08.467Z,50.50
2018-06-10T07:21:36.051Z,49.40
2018-06-10T07:24:03.641Z,49.00
2018-06-10T07:26:31.239Z,48.50
2018-06-10T07:28:58.871Z,46.40
2018-06-10T07:31:26.459Z,43.30
2018-06-10T07:33:54.067Z,40.40
2018-06-10T07:36:21.672Z,38.20
2018-06-10T07:38:49.278Z,36.60
2018-06-10T07:41:16.895Z,35.70
2018-06-10T07:43:44.499Z,34.80
2018-06-10T07:46:12.119Z,34.40
2018-06-10T07:48:39.780Z,34.10
2018-06-10T07:51:07.384Z,33.90
2018-06-10T07:53:35.145Z,34.00
2018-06-10T07:56:02.833Z,33.90
2018-06-10T07:58:30.459Z,33.80
2018-06-10T08:00:58.274Z,33.80
2018-06-10T08:03:25.906Z,33.60
2018-06-10T08:05:53.514Z,33.40
2018-06-10T08:08:21.111Z,32.80
2018-06-10T08:10:48.719Z,32.80
2018-06-10T08:13:16.415Z,32.60
2018-06-10T08:15:44.072Z,32.30
2018-06-10T08:18:11.716Z,32.30
2018-06-10T08:20:39.317Z,32.20
2018-06-10T08:23:08.028Z,32.10
2018-06-10T08:25:37.294Z,31.80
2018-06-10T08:28:08.238Z,31.50
2018-06-10T08:30:36.535Z,31.10
2018-06-10T08:33:04.706Z,31.40
2018-06-10T08:35:33.395Z,31.50
2018-06-10T08:38:01.848Z,31.30
2018-06-10T08:40:29.536Z,31.00
2018-06-10T08:42:57.320Z,31.00
2018-06-10T08:45:25.144Z,30.60
2018-06-10T08:47:52.763Z,30.00
2018-06-10T08:50:20.472Z,30.10
2018-06-10T08:52:48.643Z,30.40
2018-06-10T08:55:18.090Z,30.20
2018-06-10T08:57:46.868Z,29.90
2018-06-10T09:00:15.455Z,30.10
2018-06-10T09:02:43.344Z,30.00
2018-06-10T09:05:11.850Z,29.70
2018-06-10T09:07:40.154Z,30.20
2018-06-10T09:10:08.700Z,30.30
2018-06-10T09:12:37.211Z,30.10
2018-06-10T09:15:06.912Z,29.70
2018-06-10T09:17:36.287Z,29.30
2018-06-10T09:20:05.161Z,29.10
2018-06-10T09:22:33.127Z,29.10
2018-06-10T09:25:01.200Z,29.10
2018-06-10T09:27:30.644Z,28.50
2018-06-10T09:29:58.476Z,28.30
2018-06-10T09:32:27.409Z,27.90
2018-06-10T09:34:55.885Z,27.70
2018-06-10T09:37:23.597Z,27.50
2018-06-10T09:39:53.182Z,27.30
2018-06-10T09:42:20.859Z,27.40
2018-06-10T09:44:48.475Z,27.30
2018-06-10T09:47:17.046Z,27.70
2018-06-10T09:49:45.513Z,28.20
2018-06-10T09:52:14.341Z,28.40
2018-06-10T09:54:43.362Z,28.70
2018-06-10T09:57:11.027Z,29.00
2018-06-10T09:59:38.656Z,29.10
2018-06-10T10:02:06.412Z,29.10
2018-06-10T10:04:34.091Z,29.20
2018-06-10T10:07:01.732Z,28.70
2018-06-10T10:09:29.339Z,28.40
2018-06-10T10:11:57.022Z,28.00
2018-06-10T10:14:24.812Z,27.80
2018-06-10T10:16:52.499Z,27.30
2018-06-10T10:19:20.199Z,27.10
2018-06-10T10:21:48.439Z,27.40
2018-06-10T10:24:16.065Z,27.40
2018-06-10T10:26:43.771Z,27.30
2018-06-10T10:29:11.426Z,27.50
2018-06-10T10:31:39.082Z,27.20
2018-06-10T10:34:06.684Z,27.00
2018-06-10T10:36:34.439Z,27.00
2018-06-10T10:39:02.227Z,27.10
2018-06-10T10:41:29.824Z,27.00
2018-06-10T10:43:57.488Z,27.10
2018-06-10T10:46:25.087Z,27.00
2018-06-10T10:48:52.730Z,27.00
2018-06-10T10:51:20.375Z,27.20
2018-06-10T10:53:48.012Z,27.50
2018-06-10T10:56:15.715Z,27.70
2018-06-10T10:58:43.496Z,27.70
2018-06-10T11:01:11.143Z,28.00
2018-06-10T11:03:38.794Z,28.20
2018-06-10T11:06:06.982Z,28.30
2018-06-10T11:08:34.784Z,28.30
2018-06-10T11:11:02.608Z,28.30
2018-06-10T11:13:30.307Z,28.50
2018-06-10T11:15:57.932Z,28.50
2018-06-10T11:18:25.551Z,28.50
2018-06-10T11:20:53.579Z,28.00
2018-06-10T11:23:21.244Z,28.20
2018-06-10T11:25:48.855Z,28.30
2018-06-10T11:28:16.487Z,28.50
2018-06-10T11:30:44.135Z,28.60
2018-06-10T11:33:12.469Z,28.40
2018-06-10T11:35:40.112Z,28.40
2018-06-10T11:38:07.716Z,28.00
2018-06-10T11:40:35.677Z,28.10
2018-06-10T11:43:03.367Z,28.00
2018-06-10T11:45:31.047Z,27.80
2018-06-10T11:47:58.686Z,28.00
2018-06-10T11:50:26.335Z,28.00
2018-06-10T11:52:54.844Z,28.30
2018-06-10T11:55:22.488Z,28.70
2018-06-10T11:57:50.116Z,28.60
2018-06-10T12:00:17.712Z,29.10
2018-06-10T12:02:45.400Z,29.10
2018-06-10T12:05:14.531Z,28.90
2018-06-10T12:07:43.252Z,28.70
2018-06-10T12:10:10.941Z,28.10
2018-06-10T12:12:38.523Z,27.60
2018-06-10T12:15:06.218Z,27.40
2018-06-10T12:17:34.348Z,27.40
2018-06-10T12:20:02.012Z,27.60
2018-06-10T12:22:30.224Z,27.70
2018-06-10T12:24:58.314Z,27.90
2018-06-10T12:27:25.932Z,27.90
2018-06-10T12:29:53.553Z,27.70
2018-06-10T12:32:21.180Z,27.70
2018-06-10T12:34:48.832Z,27.90
2018-06-10T12:37:16.469Z,27.90
2018-06-10T12:39:44.131Z,28.00
2018-06-10T12:42:11.765Z,28.30
2018-06-10T12:44:39.359Z,28.20
2018-06-10T12:47:06.998Z,28.50
2018-06-10T12:49:34.623Z,28.60
2018-06-10T12:52:02.241Z,28.70
2018-06-10T12:54:29.858Z,28.60
2018-06-10T12:56:57.476Z,28.70
2018-06-10T12:59:25.090Z,28.70
2018-06-10T13:01:52.687Z,28.80
2018-06-10T13:04:20.448Z,28.90
2018-06-10T13:06:48.020Z,28.40
2018-06-10T13:09:15.656Z,28.10
2018-06-10T13:11:43.287Z,27.50
2018-06-10T13:14:10.912Z,27.00
2018-06-10T13:16:38.524Z,27.00
2018-06-10T13:19:06.147Z,27.30
2018-06-10T13:21:33.764Z,27.70
2018-06-10T13:24:01.371Z,27.80
2018-06-10T13:26:29.014Z,28.00
2018-06-10T13:28:56.671Z,27.60
2018-06-10T13:31:24.308Z,27.20
2018-06-10T13:33:51.931Z,27.10
2018-06-10T13:36:19.730Z,27.30
2018-06-10T13:38:47.338Z,27.30
2018-06-10T13:41:14.930Z,27.10
2018-06-10T13:43:42.523Z,27.10
2018-06-10T13:46:10.135Z,27.10
2018-06-10T13:48:37.794Z,27.20
2018-06-10T13:51:05.437Z,27.40
2018-06-10T13:53:33.645Z,27.30
2018-06-10T13:56:01.296Z,27.20
2018-06-10T13:58:28.904Z,27.30
2018-06-10T14:00:56.504Z,27.40
2018-06-10T14:03:24.124Z,27.50
2018-06-10T14:05:51.720Z,27.60
2018-06-10T14:08:19.324Z,27.70
2018-06-10T14:10:47.611Z,27.80
2018-06-10T14:13:15.275Z,27.80
2018-06-10T14:15:42.880Z,27.80
2018-06-10T14:18:10.560Z,27.90
2018-06-10T14:20:38.148Z,28.00
2018-06-10T14:23:05.759Z,28.10
2018-06-10T14:25:33.353Z,28.30
2018-06-10T14:28:01.060Z,28.30
2018-06-10T14:30:28.667Z,28.40
2018-06-10T14:32:56.271Z,28.00
2018-06-10T14:35:23.927Z,28.10
2018-06-10T14:37:51.587Z,28.00
2018-06-10T14:40:19.224Z,28.10
2018-06-10T14:42:46.922Z,28.20
2018-06-10T14:45:14.541Z,28.30
2018-06-10T14:47:42.211Z,28.50
2018-06-10T14:50:09.839Z,28.20
2018-06-10T14:52:37.500Z,27.90
2018-06-10T14:55:05.168Z,27.80
2018-06-10T14:57:32.787Z,27.80
2018-06-10T15:00:00.425Z,27.70
2018-06-10T15:02:28.108Z,27.60
2018-06-10T15:04:55.792Z,27.70
2018-06-10T15:07:23.459Z,27.70
2018-06-10T15:09:51.337Z,27.60
2018-06-10T15:12:18.984Z,27.60
2018-06-10T15:14:46.595Z,27.70
2018-06-10T15:17:14.211Z,27.80
2018-06-10T15:19:41.860Z,27.90
2018-06-10T15:22:09.464Z,28.00
2018-06-10T15:24:37.083Z,27.90
2018-06-10T15:27:04.783Z,28.00
2018-06-10T15:29:32.397Z,27.90
2018-06-10T15:32:00.030Z,27.90
2018-06-10T15:34:27.648Z,27.80
2018-06-10T15:36:55.284Z,27.90
2018-06-10T15:39:22.891Z,27.90
2018-06-10T15:41:50.513Z,27.80
2018-06-10T15:44:18.198Z,27.80
2018-06-10T15:46:45.844Z,27.90
2018-06-10T15:49:13.469Z,28.00
2018-06-10T15:51:41.180Z,28.00
2018-06-10T15:54:08.872Z,28.00
2018-06-10T15:56:36.471Z,28.10
2018-06-10T15:59:04.134Z,28.10
2018-06-10T16:01:31.768Z,28.20
2018-06-10T16:03:59.453Z,28.30
2018-06-10T16:06:27.072Z,28.40
2018-06-10T16:08:54.684Z,28.40
2018-06-10T16:11:22.346Z,28.50
2018-06-10T16:13:49.955Z,28.70
2018-06-10T16:16:17.591Z,28.90
2018-06-10T16:18:45.365Z,28.70
2018-06-10T16:21:13.128Z,28.30
2018-06-10T16:23:40.862Z,28.30
2018-06-10T16:26:08.495Z,28.30
2018-06-10T16:28:36.132Z,28.50
2018-06-10T16:31:03.784Z,28.80
2018-06-10T16:33:31.546Z,29.00
2018-06-10T16:35:59.354Z,29.10
2018-06-10T16:38:27.023Z,29.30
2018-06-10T16:40:54.839Z,29.40
2018-06-10T16:43:22.495Z,29.20
2018-06-10T16:45:50.226Z,28.90
2018-06-10T16:48:17.955Z,28.70
2018-06-10T16:50:45.678Z,28.30
2018-06-10T16:53:13.301Z,28.20
2018-06-10T16:55:40.969Z,28.00
2018-06-10T16:58:08.599Z,27.80
2018-06-10T17:00:36.467Z,27.60
2018-06-10T17:03:04.069Z,27.40
2018-06-10T17:05:31.736Z,27.50
2018-06-10T17:07:59.378Z,27.50
2018-06-10T17:10:27.040Z,27.40
2018-06-10T17:12:54.663Z,27.40
2018-06-10T17:15:22.311Z,27.30
2018-06-10T17:17:49.948Z,27.30
2018-06-10T17:20:17.582Z,27.00
2018-06-10T17:22:45.191Z,27.00
2018-06-10T17:25:12.848Z,26.90
2018-06-10T17:27:40.443Z,26.90
2018-06-10T17:30:08.058Z,27.00
2018-06-10T17:32:35.695Z,26.70
2018-06-10T17:35:03.347Z,26.40
2018-06-10T17:37:30.992Z,26.50
2018-06-10T17:39:58.679Z,26.40
2018-06-10T17:42:26.291Z,26.60
2018-06-10T17:44:53.926Z,26.50
2018-06-10T17:47:21.747Z,26.60
2018-06-10T17:49:49.541Z,26.50
2018-06-10T17:52:17.239Z,26.30
2018-06-10T17:54:44.960Z,26.10
2018-06-10T17:57:12.692Z,26.00
2018-06-10T17:59:40.640Z,26.00
2018-06-10T18:02:08.614Z,25.90
2018-06-10T18:04:37.487Z,25.80
2018-06-10T18:07:05.660Z,25.80
2018-06-10T18:09:33.411Z,25.80
2018-06-10T18:12:01.230Z,25.70
2018-06-10T18:14:28.985Z,25.60
2018-06-10T18:16:56.704Z,25.50
2018-06-10T18:19:24.399Z,25.30
2018-06-10T18:21:52.119Z,25.10
2018-06-10T18:24:19.807Z,25.10
2018-06-10T18:26:47.504Z,25.00
2018-06-10T18:29:15.176Z,25.00
2018-06-10T18:31:42.852Z,25.00
2018-06-10T18:34:10.658Z,25.10
2018-06-10T18:36:38.668Z,24.90
2018-06-10T18:39:07.887Z,24.80
2018-06-10T18:41:35.660Z,24.70
2018-06-10T18:44:03.355Z,24.60
2018-06-10T18:46:31.572Z,24.50
2018-06-10T18:48:59.359Z,24.50
2018-06-10T18:51:27.266Z,24.40
2018-06-10T18:53:55.254Z,24.40
2018-06-10T18:56:23.112Z,24.20
2018-06-10T18:58:50.809Z,24.20
2018-06-10T19:01:18.710Z,24.10
2018-06-10T19:03:46.611Z,24.20
2018-06-10T19:06:14.329Z,24.00
2018-06-10T19:08:42.037Z,24.00
2018-06-10T19:11:10.059Z,24.00
2018-06-10T19:13:37.899Z,23.90
2018-06-10T19:16:05.661Z,23.80
2018-06-10T19:18:33.514Z,23.70
2018-06-10T19:21:01.263Z,23.70
2018-06-10T19:23:29.045Z,23.60
2018-06-10T19:25:56.974Z,23.40
2018-06-10T19:28:24.820Z,23.30
2018-06-10T19:30:52.629Z,23.30
2018-06-10T19:33:20.223Z,23.20
2018-06-10T19:35:47.828Z,23.20
2018-06-10T19:38:15.421Z,23.20
2018-06-10T19:40:43.034Z,23.20
2018-06-10T19:43:10.741Z,23.10
2018-06-10T19:45:38.354Z,23.00
2018-06-10T19:48:05.980Z,23.30
2018-06-10T19:50:33.640Z,23.20
2018-06-10T19:53:01.369Z,23.10
2018-06-10T19:55:30.060Z,23.00
2018-06-10T19:57:57.692Z,22.90
2018-06-10T20:00:25.299Z,22.80
2018-06-10T20:02:52.922Z,22.60
2018-06-10T20:05:20.583Z,22.50
2018-06-10T20:07:48.219Z,22.40
2018-06-10T20:10:15.936Z,22.20
2018-06-10T20:12:43.569Z,22.20
2018-06-10T20:15:11.200Z,22.00
2018-06-10T20:17:38.919Z,22.00
2018-06-10T20:20:06.743Z,22.00
2018-06-10T20:22:34.481Z,21.90
2018-06-10T20:25:02.043Z,21.90
2018-06-10T20:27:29.701Z,21.70
2018-06-10T20:29:57.462Z,21.80
2018-06-10T20:32:25.031Z,21.70
2018-06-10T20:34:52.687Z,21.70
2018-06-10T20:37:20.344Z,21.70
2018-06-10T20:39:47.981Z,21.70
2018-06-10T20:42:15.670Z,21.70
2018-06-10T20:44:43.344Z,21.70
2018-06-10T20:47:11.005Z,21.70
2018-06-10T20:49:38.994Z,21.70
2018-06-10T20:52:06.666Z,21.70
2018-06-10T20:54:34.318Z,21.70
2018-06-10T20:57:01.934Z,21.70
2018-06-10T20:59:29.547Z,21.60
2018-06-10T21:01:57.835Z,21.60
2018-06-10T21:04:25.867Z,21.50
2018-06-10T21:06:53.443Z,21.60
2018-06-10T21:09:21.038Z,21.40
2018-06-10T21:11:48.651Z,21.30
2018-06-10T21:14:16.273Z,21.30
2018-06-10T21:16:43.886Z,21.30
2018-06-10T21:19:11.547Z,21.30
2018-06-10T21:21:39.232Z,21.50
2018-06-10T21:24:06.831Z,21.40
2018-06-10T21:26:34.555Z,21.50
2018-06-10T21:29:02.228Z,21.60
2018-06-10T21:31:29.848Z,21.60
2018-06-10T21:33:57.479Z,21.70
2018-06-10T21:36:25.133Z,21.70
2018-06-10T21:38:52.726Z,21.80
2018-06-10T21:41:20.379Z,21.90
2018-06-10T21:43:47.997Z,21.90
2018-06-10T21:46:15.609Z,21.90
2018-06-10T21:48:43.200Z,21.90
2018-06-10T21:51:10.811Z,22.00
2018-06-10T21:53:38.457Z,21.80
2018-06-10T21:56:06.065Z,21.80
2018-06-10T21:58:33.676Z,21.90
2018-06-10T22:01:01.312Z,21.90
2018-06-10T22:03:28.968Z,21.90
2018-06-10T22:05:56.588Z,21.90
2018-06-10T22:08:24.208Z,21.90
2018-06-10T22:10:51.879Z,21.80
2018-06-10T22:13:19.507Z,21.70
2018-06-10T22:15:47.239Z,21.80
2018-06-10T22:18:14.883Z,21.70
2018-06-10T22:20:42.540Z,21.90
2018-06-10T22:23:10.139Z,21.70
2018-06-10T22:25:37.876Z,21.60
2018-06-10T22:28:05.500Z,21.50
2018-06-10T22:30:33.146Z,21.50
2018-06-10T22:33:00.752Z,21.40
2018-06-10T22:35:28.382Z,21.30
2018-06-10T22:37:56.048Z,21.20
2018-06-10T22:40:23.709Z,21.20
2018-06-10T22:42:51.342Z,21.20
2018-06-10T22:45:18.991Z,21.10
2018-06-10T22:47:46.611Z,21.00
2018-06-10T22:50:14.223Z,21.10
2018-06-10T22:52:41.820Z,21.00
2018-06-10T22:55:09.448Z,21.00
2018-06-10T22:57:37.096Z,20.90
2018-06-10T23:00:06.640Z,20.80
2018-06-10T23:02:34.270Z,20.80
2018-06-10T23:05:01.884Z,20.70
2018-06-10T23:07:29.491Z,20.70
2018-06-10T23:09:57.227Z,20.70
2018-06-10T23:12:24.827Z,20.70
2018-06-10T23:14:52.420Z,20.60
2018-06-10T23:17:20.152Z,20.60
2018-06-10T23:19:47.799Z,20.50
2018-06-10T23:22:15.431Z,20.50
2018-06-10T23:24:43.049Z,20.50
2018-06-10T23:27:10.649Z,20.50
2018-06-10T23:29:38.254Z,20.60
2018-06-10T23:32:06.004Z,20.60
2018-06-10T23:34:33.602Z,20.50
2018-06-10T23:37:01.172Z,20.60
2018-06-10T23:39:28.848Z,20.70
2018-06-10T23:41:56.463Z,20.70
2018-06-10T23:44:24.147Z,20.70
2018-06-10T23:46:51.765Z,20.60
2018-06-10T23:49:19.418Z,20.50
2018-06-10T23:51:47.000Z,20.50
2018-06-10T23:54:14.590Z,20.50
2018-06-10T23:56:42.259Z,20.50
2018-06-10T23:59:09.867Z,20.50
